createdAt,value
2022-09-30T00:00:26.049Z,68.67
2022-09-30T00:03:14.383Z,68.57
2022-09-30T00:05:42.165Z,68.65
2022-09-30T00:08:10.128Z,68.63
2022-09-30T00:10:37.781Z,68.64
2022-09-30T00:13:05.518Z,68.72
2022-09-30T00:15:33.264Z,68.77
2022-09-30T00:18:00.957Z,68.80
2022-09-30T00:20:28.853Z,68.87
2022-09-30T00:22:57.145Z,68.94
2022-09-30T00:25:24.952Z,68.95
2022-09-30T00:27:52.584Z,69.15
2022-09-30T00:30:20.220Z,69.26
2022-09-30T00:32:48.168Z,69.19
2022-09-30T00:35:20.446Z,69.26
2022-09-30T00:37:50.209Z,69.36
2022-09-30T00:40:20.273Z,69.25
2022-09-30T00:42:48.051Z,69.16
2022-09-30T00:45:17.999Z,69.23
2022-09-30T00:47:55.303Z,69.06
2022-09-30T00:50:46.056Z,69.12
2022-09-30T00:53:24.912Z,69.11
2022-09-30T00:56:20.709Z,69.12
2022-09-30T00:58:59.812Z,69.17
2022-09-30T01:01:27.964Z,69.17
2022-09-30T01:04:00.602Z,69.14
2022-09-30T01:06:28.921Z,69.32
2022-09-30T01:08:58.558Z,69.51
2022-09-30T01:11:27.832Z,69.61
2022-09-30T01:14:17.405Z,69.67
2022-09-30T01:17:16.574Z,69.64
2022-09-30T01:20:09.196Z,69.74
2022-09-30T01:22:42.191Z,70.05
2022-09-30T01:25:38.356Z,70.26
2022-09-30T01:28:30.180Z,70.43
2022-09-30T01:31:02.197Z,70.30
2022-09-30T01:33:42.130Z,70.46
2022-09-30T01:36:28.542Z,70.39
2022-09-30T01:38:59.076Z,70.46
2022-09-30T01:41:54.527Z,70.41
2022-09-30T01:44:32.053Z,70.50
2022-09-30T01:47:12.008Z,70.31
2022-09-30T01:49:47.535Z,70.54
2022-09-30T01:52:30.461Z,70.67
2022-09-30T01:55:08.143Z,70.55
2022-09-30T01:57:45.464Z,70.74
2022-09-30T02:00:13.652Z,70.68
2022-09-30T02:02:49.161Z,70.79
2022-09-30T02:05:25.047Z,70.83
2022-09-30T02:08:01.246Z,70.73
2022-09-30T02:10:35.672Z,70.78
2022-09-30T02:13:09.579Z,70.75
2022-09-30T02:15:41.674Z,70.67
2022-09-30T02:18:20.366Z,70.82
2022-09-30T02:20:52.695Z,70.72
2022-09-30T02:23:25.934Z,70.74
2022-09-30T02:26:07.203Z,70.50
2022-09-30T02:28:39.526Z,70.45
2022-09-30T02:31:08.836Z,70.63
2022-09-30T02:34:18.856Z,70.65
2022-09-30T02:36:46.443Z,70.77
2022-09-30T02:39:21.524Z,70.65
2022-09-30T02:41:53.246Z,70.69
2022-09-30T02:44:21.103Z,70.76
2022-09-30T02:46:48.886Z,70.71
2022-09-30T02:49:29.443Z,70.78
2022-09-30T02:52:15.847Z,70.80
2022-09-30T02:54:55.750Z,70.88
2022-09-30T02:57:55.822Z,70.90
2022-09-30T03:00:24.215Z,70.79
2022-09-30T03:02:56.446Z,70.79
2022-09-30T03:05:24.096Z,70.78
2022-09-30T03:07:52.077Z,70.88
2022-09-30T03:10:20.117Z,70.87
2022-09-30T03:13:15.985Z,70.84
2022-09-30T03:15:53.575Z,70.88
2022-09-30T03:18:58.694Z,70.88
2022-09-30T03:21:58.827Z,70.82
2022-09-30T03:24:49.886Z,71.05
2022-09-30T03:27:36.013Z,70.86
2022-09-30T03:30:09.923Z,70.77
2022-09-30T03:32:37.647Z,70.63
2022-09-30T03:35:31.063Z,70.89
2022-09-30T03:38:02.523Z,70.74
2022-09-30T03:40:59.968Z,70.77
2022-09-30T03:43:31.650Z,70.91
2022-09-30T03:46:08.827Z,70.94
2022-09-30T03:48:38.766Z,70.95
2022-09-30T03:51:06.312Z,70.93
2022-09-30T03:53:41.438Z,70.88
2022-09-30T03:56:09.353Z,71.06
2022-09-30T03:58:42.269Z,70.90
2022-09-30T04:01:20.060Z,70.87
2022-09-30T04:03:52.442Z,70.97
2022-09-30T04:06:22.748Z,70.90
2022-09-30T04:08:50.829Z,70.97
2022-09-30T04:11:18.669Z,70.88
2022-09-30T04:13:46.461Z,70.91
2022-09-30T04:16:14.272Z,70.91
2022-09-30T04:18:42.423Z,71.06
2022-09-30T04:21:12.738Z,71.09
2022-09-30T04:23:41.969Z,71.08
2022-09-30T04:26:13.163Z,71.17
2022-09-30T04:28:41.247Z,71.13
2022-09-30T04:31:11.929Z,71.14
2022-09-30T04:33:40.403Z,71.23
2022-09-30T04:36:08.158Z,71.20
2022-09-30T04:38:35.910Z,71.19
2022-09-30T04:41:06.843Z,71.02
2022-09-30T04:43:34.806Z,71.17
2022-09-30T04:46:02.853Z,71.18
2022-09-30T04:48:32.454Z,71.24
2022-09-30T04:51:00.928Z,71.16
2022-09-30T04:53:29.300Z,71.08
2022-09-30T04:56:01.184Z,71.31
2022-09-30T04:58:33.368Z,71.25
2022-09-30T05:01:03.875Z,71.03
2022-09-30T05:03:31.818Z,71.25
2022-09-30T05:05:59.906Z,71.25
2022-09-30T05:08:27.758Z,71.48
2022-09-30T05:10:57.782Z,71.78
2022-09-30T05:13:31.845Z,71.91
2022-09-30T05:16:00.334Z,71.91
2022-09-30T05:18:29.153Z,71.95
2022-09-30T05:20:57.737Z,71.96
2022-09-30T05:23:27.127Z,71.98
2022-09-30T05:25:56.031Z,71.84
2022-09-30T05:28:24.658Z,71.92
2022-09-30T05:31:03.544Z,71.87
2022-09-30T05:33:32.027Z,71.93
2022-09-30T05:36:04.937Z,71.85
2022-09-30T05:38:33.767Z,71.80
2022-09-30T05:41:13.104Z,71.85
2022-09-30T05:43:42.767Z,71.62
2022-09-30T05:46:10.573Z,71.91
2022-09-30T05:48:38.255Z,71.98
2022-09-30T05:51:06.451Z,72.04
2022-09-30T05:53:38.677Z,71.89
2022-09-30T05:56:07.733Z,71.81
2022-09-30T05:58:36.475Z,71.78
2022-09-30T06:01:12.801Z,71.74
2022-09-30T06:03:43.514Z,71.65
2022-09-30T06:06:11.696Z,71.83
2022-09-30T06:08:40.425Z,71.70
2022-09-30T06:11:11.938Z,71.80
2022-09-30T06:13:41.374Z,72.01
2022-09-30T06:16:10.572Z,71.84
2022-09-30T06:18:41.247Z,71.84
2022-09-30T06:21:12.265Z,71.70
2022-09-30T06:23:40.514Z,71.66
2022-09-30T06:26:11.728Z,71.49
2022-09-30T06:28:40.160Z,71.39
2022-09-30T06:31:08.573Z,71.40
2022-09-30T06:33:36.410Z,71.29
2022-09-30T06:36:04.798Z,71.47
2022-09-30T06:38:34.208Z,71.52
2022-09-30T06:41:01.937Z,71.71
2022-09-30T06:43:29.798Z,71.57
2022-09-30T06:46:10.654Z,71.76
2022-09-30T06:48:41.676Z,71.96
2022-09-30T06:51:12.365Z,71.96
2022-09-30T06:53:40.308Z,72.00
2022-09-30T06:56:08.220Z,71.81
2022-09-30T06:58:36.230Z,71.53
2022-09-30T07:01:06.435Z,71.40
2022-09-30T07:03:36.136Z,71.38
2022-09-30T07:06:04.542Z,71.27
2022-09-30T07:08:34.257Z,71.10
2022-09-30T07:11:04.437Z,71.18
2022-09-30T07:13:33.215Z,71.12
2022-09-30T07:16:01.645Z,71.17
2022-09-30T07:18:29.502Z,71.26
2022-09-30T07:20:57.328Z,71.41
2022-09-30T07:23:27.212Z,71.49
2022-09-30T07:26:01.082Z,71.12
2022-09-30T07:28:33.129Z,70.52
2022-09-30T07:31:31.205Z,70.16
2022-09-30T07:33:56.739Z,70.51
2022-09-30T07:36:33.057Z,70.03
2022-09-30T07:39:07.437Z,70.32
2022-09-30T07:41:38.917Z,69.89
2022-09-30T07:44:14.380Z,69.80
2022-09-30T07:46:43.953Z,69.82
2022-09-30T07:49:24.420Z,69.85
2022-09-30T07:51:55.591Z,69.59
2022-09-30T07:54:26.557Z,69.60
2022-09-30T07:57:09.628Z,69.35
2022-09-30T07:59:40.931Z,69.27
2022-09-30T08:02:16.225Z,69.31
2022-09-30T08:04:44.945Z,69.37
2022-09-30T08:07:14.478Z,69.34
2022-09-30T08:09:42.378Z,68.84
2022-09-30T08:12:10.233Z,68.65
2022-09-30T08:14:38.029Z,68.54
2022-09-30T08:17:06.318Z,68.55
2022-09-30T08:19:35.341Z,68.50
2022-09-30T08:24:36.082Z,68.18
2022-09-30T08:27:03.971Z,68.41
2022-09-30T08:32:21.827Z,68.17
2022-09-30T08:34:49.817Z,67.80
2022-09-30T08:37:18.427Z,67.78
2022-09-30T08:39:48.466Z,67.89
2022-09-30T08:42:37.452Z,67.56
2022-09-30T08:45:18.906Z,67.53
2022-09-30T08:48:28.867Z,67.63
2022-09-30T08:51:10.195Z,67.79
2022-09-30T08:53:41.838Z,67.82
2022-09-30T08:56:23.771Z,67.46
2022-09-30T08:58:57.007Z,67.12
2022-09-30T09:01:40.734Z,66.92
2022-09-30T09:04:08.824Z,66.96
2022-09-30T09:06:45.252Z,66.96
2022-09-30T09:09:38.979Z,66.68
